KAPC/APC METAR and TAF weather

Enter ICAO airport designator
Station Type Date Time Source
KAPC METAR 2018/12/10 17:54 UTC NOAA

KAPC 101754Z 18004KT 2 1/2SM BR BKN008 OVC022 10/08 A3027 RMK AO2 SLP240 60001 T01000083 10106 20089 53007


Station Type Date Time Source
KAPC Decoded METAR 2018/12/10 17:54 UTC NOAA

NAPA COUNTY AIRPORT, CA, United States (KAPC) 38-12N 122-17W 13M
Dec 10, 2018 - 12:54 PM EST / 2018.12.10 1754 UTC
Wind: from the S (180 degrees) at 5 MPH (4 KT):0
Visibility: 2 1/2 mile(s):0
Sky conditions: overcast
Weather: mist
Temperature: 50.0 F (10.0 C)
Dew Point: 46.9 F (8.3 C)
Relative Humidity: 89%
Pressure (altimeter): 30.27 in. Hg (1025 hPa)
Pressure tendency: 0.02 inches (0.7 hPa) higher than three hours ago
ob: KAPC 101754Z 18004KT 2 1/2SM BR BKN008 OVC022 10/08 A3027 RMK AO2 SLP240 60001 T01000083 10106 20089 53007
cycle: 18

Station Type Date Time Source
KAPC TAF 2016/02/08 18:39 UTC NOAA

TAF KAPC 081738Z 0818/0918 08008KT P6SM SKC
FM081900 09012KT P6SM SKC
FM090000 07007KT P6SM SKC
FM090600 04004KT P6SM SKC


Example: see airport list